Terminal Aerodrome Forecast
Issued by NWS Quad Cities IA IL

Home | Current Version | Previous Version | Text Only | Print | Product List | Glossary On
Versions: 1 2 3 4 5 6 7 8 9 10 11 12 13 14 15 16 17 18 19 20 21 22 23 24
000
FTUS43 KDVN 230500
TAFDBQ
TAF
KDBQ 230520Z 2306/2406 18012KT P6SM BKN020
     FM230700 18012KT 6SM BR OVC012
     FM231100 17011KT 4SM BR OVC008
     FM231400 18012KT 1SM -RA BR OVC005
     FM232100 14010KT 1SM RA BR OVC004=

USA.gov is the U.S. government's official web portal to all federal, state and local government web resources and services.